createdAt,value
2018-01-23T00:02:11.295Z,4.40
2018-01-23T00:04:37.815Z,4.40
2018-01-23T00:07:04.298Z,4.40
2018-01-23T00:09:30.870Z,4.40
2018-01-23T00:11:57.634Z,4.40
2018-01-23T00:14:24.620Z,4.30
2018-01-23T00:16:51.829Z,4.30
2018-01-23T00:19:18.548Z,4.30
2018-01-23T00:21:45.082Z,4.30
2018-01-23T00:24:11.578Z,4.30
2018-01-23T00:26:38.937Z,4.30
2018-01-23T00:29:05.507Z,4.30
2018-01-23T00:31:32.007Z,4.30
2018-01-23T00:33:59.322Z,4.30
2018-01-23T00:36:26.474Z,4.30
2018-01-23T00:38:52.982Z,4.30
2018-01-23T00:41:19.558Z,4.30
2018-01-23T00:43:46.150Z,4.30
2018-01-23T00:46:12.651Z,4.30
2018-01-23T00:48:39.967Z,4.30
2018-01-23T00:51:06.564Z,4.30
2018-01-23T00:53:33.089Z,4.30
2018-01-23T00:55:59.591Z,4.30
2018-01-23T00:58:26.089Z,4.30
2018-01-23T01:00:52.807Z,4.20
2018-01-23T01:03:19.368Z,4.20
2018-01-23T01:05:46.925Z,4.20
2018-01-23T01:08:13.477Z,4.20
2018-01-23T01:10:40.132Z,4.20
2018-01-23T01:13:06.716Z,4.20
2018-01-23T01:15:33.226Z,4.20
2018-01-23T01:18:00.452Z,4.20
2018-01-23T01:20:27.170Z,4.10
2018-01-23T01:22:53.635Z,4.20
2018-01-23T01:25:20.163Z,4.20
2018-01-23T01:27:46.638Z,4.20
2018-01-23T01:30:13.242Z,4.10
2018-01-23T01:32:39.737Z,4.10
2018-01-23T01:35:06.254Z,4.10
2018-01-23T01:37:32.707Z,4.10
2018-01-23T01:39:59.442Z,4.10
2018-01-23T01:42:25.958Z,4.10
2018-01-23T01:44:52.432Z,4.00
2018-01-23T01:47:19.157Z,4.10
2018-01-23T01:49:45.613Z,4.00
2018-01-23T01:52:12.124Z,4.00
2018-01-23T01:54:38.646Z,4.00
2018-01-23T01:57:05.149Z,4.00
2018-01-23T01:59:32.365Z,4.00
2018-01-23T02:01:58.836Z,4.00
2018-01-23T02:04:25.513Z,4.00
2018-01-23T02:06:52.025Z,4.00
2018-01-23T02:09:18.534Z,4.00
2018-01-23T02:11:46.081Z,4.00
2018-01-23T02:14:12.658Z,4.00
2018-01-23T02:16:39.160Z,4.00
2018-01-23T02:19:06.332Z,4.00
2018-01-23T02:21:32.783Z,4.00
2018-01-23T02:23:59.274Z,3.90
2018-01-23T02:26:26.488Z,3.90
2018-01-23T02:28:52.994Z,3.90
2018-01-23T02:31:19.570Z,3.90
2018-01-23T02:33:45.992Z,3.90
2018-01-23T02:36:12.480Z,4.00
2018-01-23T02:38:39.730Z,3.90
2018-01-23T02:41:06.308Z,3.90
2018-01-23T02:43:32.778Z,3.90
2018-01-23T02:45:59.263Z,3.90
2018-01-23T02:48:25.792Z,3.90
2018-01-23T02:50:52.296Z,3.90
2018-01-23T02:53:19.513Z,4.00
2018-01-23T02:55:45.967Z,3.90
2018-01-23T02:58:12.630Z,4.00
2018-01-23T03:00:39.106Z,4.00
2018-01-23T03:03:05.608Z,4.00
2018-01-23T03:05:32.069Z,3.90
2018-01-23T03:07:58.593Z,4.00
2018-01-23T03:10:25.092Z,4.00
2018-01-23T03:12:52.356Z,4.00
2018-01-23T03:15:18.814Z,4.00
2018-01-23T03:17:45.249Z,3.90
2018-01-23T03:20:11.947Z,4.00
2018-01-23T03:22:38.393Z,4.00
2018-01-23T03:25:04.835Z,4.00
2018-01-23T03:27:31.322Z,3.90
2018-01-23T03:29:59.250Z,3.90
2018-01-23T03:32:25.743Z,3.90
2018-01-23T03:34:53.030Z,3.90
2018-01-23T03:37:19.475Z,3.90
2018-01-23T03:39:45.936Z,3.90
2018-01-23T03:42:12.358Z,3.90
2018-01-23T03:44:38.800Z,3.90
2018-01-23T03:47:05.208Z,4.00
2018-01-23T03:49:31.692Z,4.00
2018-01-23T03:51:58.941Z,4.10
2018-01-23T03:54:26.135Z,4.00
2018-01-23T03:56:52.602Z,4.00
2018-01-23T03:59:19.069Z,4.00
2018-01-23T04:01:46.290Z,4.00
2018-01-23T04:04:12.791Z,3.90
2018-01-23T04:06:39.300Z,4.00
2018-01-23T04:09:06.494Z,4.00
2018-01-23T04:11:32.908Z,4.00
2018-01-23T04:13:59.363Z,3.90
2018-01-23T04:16:26.548Z,4.00
2018-01-23T04:18:53.766Z,4.00
2018-01-23T04:21:20.256Z,4.00
2018-01-23T04:23:47.569Z,4.00
2018-01-23T04:26:14.019Z,4.00
2018-01-23T04:28:41.291Z,4.00
2018-01-23T04:31:08.832Z,3.90
2018-01-23T04:33:35.327Z,3.90
2018-01-23T04:36:01.776Z,3.90
2018-01-23T04:38:28.280Z,3.90
2018-01-23T04:40:54.823Z,3.90
2018-01-23T04:43:21.399Z,4.00
2018-01-23T04:45:47.860Z,3.90
2018-01-23T04:48:15.056Z,3.90
2018-01-23T04:50:41.558Z,3.90
2018-01-23T04:53:08.002Z,4.00
2018-01-23T04:55:34.495Z,4.00
2018-01-23T04:58:01.699Z,4.00
2018-01-23T05:00:28.151Z,4.00
2018-01-23T05:02:54.607Z,4.00
2018-01-23T05:05:22.060Z,4.00
2018-01-23T05:07:48.511Z,4.00
2018-01-23T05:10:15.720Z,4.00
2018-01-23T05:12:42.230Z,4.00
2018-01-23T05:15:08.755Z,4.10
2018-01-23T05:17:35.248Z,4.10
2018-01-23T05:20:02.491Z,4.10
2018-01-23T05:22:28.976Z,4.10
2018-01-23T05:24:55.440Z,4.10
2018-01-23T05:27:21.898Z,4.20
2018-01-23T05:29:48.381Z,4.20
2018-01-23T05:32:14.860Z,4.20
2018-01-23T05:34:41.342Z,4.20
2018-01-23T05:37:07.815Z,4.20
2018-01-23T05:39:35.159Z,4.10
2018-01-23T05:42:01.607Z,4.10
2018-01-23T05:44:28.124Z,4.10
2018-01-23T05:46:54.554Z,4.10
2018-01-23T05:49:21.000Z,4.00
2018-01-23T05:51:47.500Z,4.00
2018-01-23T05:54:13.936Z,4.00
2018-01-23T05:56:40.451Z,4.10
2018-01-23T05:59:06.926Z,4.10
2018-01-23T06:01:33.364Z,4.10
2018-01-23T06:03:59.836Z,4.10
2018-01-23T06:06:27.016Z,4.10
2018-01-23T06:08:53.517Z,4.10
2018-01-23T06:11:20.758Z,4.10
2018-01-23T06:13:47.530Z,4.10
2018-01-23T06:16:14.756Z,4.10
2018-01-23T06:18:41.227Z,4.10
2018-01-23T06:21:07.717Z,4.10
2018-01-23T06:23:34.181Z,4.10
2018-01-23T06:26:01.419Z,4.10
2018-01-23T06:28:28.649Z,4.10
2018-01-23T06:30:55.172Z,4.10
2018-01-23T06:33:21.752Z,4.10
2018-01-23T06:35:48.971Z,4.10
2018-01-23T06:38:15.434Z,4.10
2018-01-23T06:40:41.981Z,4.10
2018-01-23T06:43:08.563Z,4.00
2018-01-23T06:45:35.018Z,4.00
2018-01-23T06:48:01.547Z,4.00
2018-01-23T06:50:28.070Z,4.00
2018-01-23T06:52:54.567Z,4.00
2018-01-23T06:55:21.021Z,4.00
2018-01-23T06:57:47.483Z,4.00
2018-01-23T07:00:13.986Z,4.00
2018-01-23T07:02:41.631Z,3.90
2018-01-23T07:05:08.093Z,4.00
2018-01-23T07:07:34.617Z,3.90
2018-01-23T07:10:01.838Z,4.00
2018-01-23T07:12:28.376Z,4.00
2018-01-23T07:14:54.878Z,4.00
2018-01-23T07:17:22.172Z,3.90
2018-01-23T07:19:48.642Z,3.90
2018-01-23T07:22:15.172Z,3.90
2018-01-23T07:24:41.631Z,3.90
2018-01-23T07:27:08.050Z,3.90
2018-01-23T07:29:34.580Z,3.90
2018-01-23T07:32:01.128Z,4.00
2018-01-23T07:34:27.610Z,4.00
2018-01-23T07:36:54.106Z,4.00
2018-01-23T07:39:20.554Z,4.00
2018-01-23T07:41:47.807Z,4.10
2018-01-23T07:44:15.531Z,4.10
2018-01-23T07:46:42.211Z,4.10
2018-01-23T07:49:08.729Z,4.20
2018-01-23T07:51:35.984Z,4.20
2018-01-23T07:54:03.215Z,4.30
2018-01-23T07:56:29.836Z,4.30
2018-01-23T07:58:56.342Z,4.40
2018-01-23T08:01:22.902Z,4.50
2018-01-23T08:03:52.300Z,4.50
2018-01-23T08:06:19.494Z,4.40
2018-01-23T08:08:46.742Z,4.40
2018-01-23T08:11:13.946Z,4.40
2018-01-23T08:13:40.446Z,4.30
2018-01-23T08:16:07.668Z,4.40
2018-01-23T08:18:34.107Z,4.30
2018-01-23T08:21:00.807Z,4.20
2018-01-23T08:23:27.268Z,4.40
2018-01-23T08:25:53.772Z,4.40
2018-01-23T08:28:20.282Z,4.40
2018-01-23T08:30:46.819Z,4.50
2018-01-23T08:33:13.271Z,4.50
2018-01-23T08:35:39.740Z,4.50
2018-01-23T08:38:06.328Z,4.50
2018-01-23T08:40:32.770Z,4.60
2018-01-23T08:42:59.247Z,4.60
2018-01-23T08:45:25.691Z,4.70
2018-01-23T08:47:52.172Z,4.80
2018-01-23T08:50:18.731Z,4.90
2018-01-23T08:52:45.333Z,4.90
2018-01-23T08:55:11.836Z,4.90
2018-01-23T08:57:39.159Z,4.80
2018-01-23T09:00:05.673Z,4.80
2018-01-23T09:02:32.140Z,4.70
2018-01-23T09:04:58.732Z,4.80
2018-01-23T09:07:25.194Z,4.70
2018-01-23T09:09:51.710Z,4.70
2018-01-23T09:12:18.191Z,4.80
2018-01-23T09:14:44.646Z,4.80
2018-01-23T09:17:11.924Z,4.80
2018-01-23T09:19:38.375Z,4.70
2018-01-23T09:22:04.847Z,4.60
2018-01-23T09:24:32.107Z,4.60
2018-01-23T09:26:59.342Z,4.60
2018-01-23T09:29:25.825Z,4.60
2018-01-23T09:31:52.295Z,4.60
2018-01-23T09:34:18.810Z,4.70
2018-01-23T09:36:45.447Z,4.80
2018-01-23T09:39:11.990Z,4.90
2018-01-23T09:41:38.514Z,4.90
2018-01-23T09:44:04.965Z,4.90
2018-01-23T09:46:31.403Z,4.90
2018-01-23T09:48:57.861Z,4.90
2018-01-23T09:51:25.067Z,5.00
2018-01-23T09:53:51.762Z,5.00
2018-01-23T09:56:18.982Z,5.20
2018-01-23T09:58:45.469Z,5.20
2018-01-23T10:01:11.911Z,5.30
2018-01-23T10:03:38.403Z,5.50
2018-01-23T10:06:04.851Z,5.50
2018-01-23T10:08:32.053Z,5.40
2018-01-23T10:10:58.522Z,5.40
2018-01-23T10:13:25.774Z,5.40
2018-01-23T10:15:52.274Z,5.30
2018-01-23T10:18:18.811Z,5.40
2018-01-23T10:20:45.967Z,5.40
2018-01-23T10:23:12.491Z,5.30
2018-01-23T10:25:38.935Z,5.30
2018-01-23T10:28:05.397Z,5.30
2018-01-23T10:30:31.880Z,5.20
2018-01-23T10:32:58.308Z,5.30
2018-01-23T10:35:24.756Z,5.40
2018-01-23T10:37:51.239Z,5.40
2018-01-23T10:40:18.439Z,5.40
2018-01-23T10:42:45.630Z,5.40
2018-01-23T10:45:12.086Z,5.40
2018-01-23T10:47:39.279Z,5.50
2018-01-23T10:50:05.738Z,5.50
2018-01-23T10:52:32.291Z,5.50
2018-01-23T10:54:59.545Z,5.60
2018-01-23T10:57:26.758Z,5.70
2018-01-23T10:59:53.280Z,5.70
2018-01-23T11:02:19.713Z,5.80
2018-01-23T11:04:46.382Z,5.80
2018-01-23T11:07:12.968Z,5.80
2018-01-23T11:09:39.463Z,5.70
2018-01-23T11:12:05.908Z,5.70
2018-01-23T11:14:33.121Z,5.80
2018-01-23T11:16:59.733Z,5.80
2018-01-23T11:19:26.332Z,5.90
2018-01-23T11:21:52.811Z,6.00
2018-01-23T11:24:19.529Z,6.20
2018-01-23T11:26:46.223Z,6.40
2018-01-23T11:29:12.673Z,6.50
2018-01-23T11:31:40.092Z,6.90
2018-01-23T11:34:06.659Z,7.00
2018-01-23T11:36:33.141Z,7.00
2018-01-23T11:39:00.346Z,7.30
2018-01-23T11:41:27.552Z,7.80
2018-01-23T11:43:54.149Z,7.80
2018-01-23T11:46:20.766Z,8.10
2018-01-23T11:48:48.090Z,9.90
2018-01-23T11:51:14.581Z,9.70
2018-01-23T11:53:42.669Z,10.80
2018-01-23T11:56:09.207Z,11.00
2018-01-23T11:58:35.677Z,11.50
2018-01-23T12:01:02.189Z,11.90
2018-01-23T12:03:28.663Z,12.50
2018-01-23T12:05:55.969Z,12.20
2018-01-23T12:08:22.459Z,12.20
2018-01-23T12:10:49.800Z,13.40
2018-01-23T12:13:16.337Z,13.40
2018-01-23T12:15:42.827Z,13.50
2018-01-23T12:18:09.316Z,13.70
2018-01-23T12:20:35.878Z,13.50
2018-01-23T12:23:02.373Z,13.00
2018-01-23T12:25:28.889Z,12.70
2018-01-23T12:27:55.501Z,12.80
2018-01-23T12:30:22.057Z,11.60
2018-01-23T12:32:48.531Z,10.40
2018-01-23T12:35:15.003Z,9.50
2018-01-23T12:37:41.481Z,9.10
2018-01-23T12:40:07.990Z,8.80
2018-01-23T12:42:34.567Z,8.70
2018-01-23T12:45:01.863Z,8.50
2018-01-23T12:47:28.432Z,8.50
2018-01-23T12:49:54.948Z,8.40
2018-01-23T12:52:21.409Z,8.30
2018-01-23T12:54:48.027Z,8.40
2018-01-23T12:57:14.491Z,8.50
2018-01-23T12:59:41.744Z,8.80
2018-01-23T13:02:09.016Z,9.00
2018-01-23T13:04:36.269Z,9.00
2018-01-23T13:07:02.871Z,9.00
2018-01-23T13:09:29.342Z,9.10
2018-01-23T13:11:55.933Z,9.10
2018-01-23T13:14:22.473Z,9.20
2018-01-23T13:16:49.669Z,8.80
2018-01-23T13:19:16.171Z,8.70
2018-01-23T13:21:43.614Z,8.70
2018-01-23T13:24:10.197Z,8.60
2018-01-23T13:26:36.922Z,8.80
2018-01-23T13:29:03.607Z,8.60
2018-01-23T13:31:31.346Z,8.50
2018-01-23T13:33:58.018Z,8.50
2018-01-23T13:36:24.484Z,8.30
2018-01-23T13:38:51.764Z,8.30
2018-01-23T13:41:18.261Z,8.20
2018-01-23T13:43:44.746Z,8.30
2018-01-23T13:46:11.479Z,8.20
2018-01-23T13:48:39.303Z,7.90
2018-01-23T13:51:06.556Z,7.90
2018-01-23T13:53:33.915Z,7.90
2018-01-23T13:56:01.160Z,7.80
2018-01-23T13:58:27.663Z,7.80
2018-01-23T14:00:54.243Z,7.80
2018-01-23T14:03:21.498Z,7.70
2018-01-23T14:05:48.733Z,7.70
2018-01-23T14:08:15.283Z,7.70
2018-01-23T14:10:42.483Z,7.80
2018-01-23T14:13:08.962Z,7.70
2018-01-23T14:15:36.214Z,7.70
2018-01-23T14:18:03.521Z,7.70
2018-01-23T14:20:30.059Z,7.70
2018-01-23T14:22:56.571Z,7.70
2018-01-23T14:25:23.354Z,7.70
2018-01-23T14:27:49.896Z,7.70
2018-01-23T14:30:16.439Z,7.60
2018-01-23T14:32:43.860Z,7.60
2018-01-23T14:35:10.359Z,7.50
2018-01-23T14:37:36.915Z,7.50
2018-01-23T14:40:03.452Z,7.50
2018-01-23T14:42:30.018Z,7.40
2018-01-23T14:44:56.613Z,7.40
2018-01-23T14:47:23.082Z,7.30
2018-01-23T14:49:49.611Z,7.30
2018-01-23T14:52:16.090Z,7.20
2018-01-23T14:54:42.755Z,7.20
2018-01-23T14:57:09.219Z,7.20
2018-01-23T14:59:36.602Z,7.30
2018-01-23T15:02:03.135Z,7.30
2018-01-23T15:04:29.653Z,7.30
2018-01-23T15:06:56.544Z,7.30
2018-01-23T15:09:23.022Z,7.30
2018-01-23T15:11:49.554Z,7.30
2018-01-23T15:14:16.108Z,7.30
2018-01-23T15:16:42.703Z,7.20
2018-01-23T15:19:09.260Z,7.20
2018-01-23T15:21:36.577Z,7.10
2018-01-23T15:24:03.122Z,7.10
2018-01-23T15:26:29.829Z,7.10
2018-01-23T15:28:56.367Z,7.10
2018-01-23T15:31:23.600Z,7.10
2018-01-23T15:33:50.074Z,7.10
2018-01-23T15:36:16.604Z,7.10
2018-01-23T15:38:43.077Z,7.10
2018-01-23T15:41:09.609Z,7.00
2018-01-23T15:43:36.129Z,7.10
2018-01-23T15:46:03.399Z,7.10
2018-01-23T15:48:29.923Z,6.90
2018-01-23T15:50:56.746Z,7.00
2018-01-23T15:53:23.260Z,6.90
2018-01-23T15:55:49.769Z,6.90
2018-01-23T15:58:16.263Z,6.80
2018-01-23T16:00:42.759Z,6.80
2018-01-23T16:03:10.075Z,6.80
2018-01-23T16:05:37.223Z,6.80
2018-01-23T16:08:03.742Z,6.80
2018-01-23T16:10:31.967Z,6.80
2018-01-23T16:12:58.418Z,6.80
2018-01-23T16:15:25.793Z,6.70
2018-01-23T16:17:52.637Z,6.70
2018-01-23T16:20:19.285Z,6.70
2018-01-23T16:22:45.819Z,6.70
2018-01-23T16:25:12.365Z,6.70
2018-01-23T16:27:38.944Z,6.60
2018-01-23T16:30:05.805Z,6.60
2018-01-23T16:32:32.447Z,6.50
2018-01-23T16:34:59.086Z,6.40
2018-01-23T16:37:25.806Z,6.40
2018-01-23T16:39:53.076Z,6.50
2018-01-23T16:42:19.660Z,6.50
2018-01-23T16:44:46.502Z,6.50
2018-01-23T16:47:13.267Z,6.50
2018-01-23T16:49:39.772Z,6.50
2018-01-23T16:52:06.475Z,6.50
2018-01-23T16:54:33.041Z,6.50
2018-01-23T16:56:59.567Z,6.60
2018-01-23T16:59:26.337Z,6.60
2018-01-23T17:01:52.966Z,6.50
2018-01-23T17:04:19.451Z,6.50
2018-01-23T17:06:45.945Z,6.50
2018-01-23T17:09:12.458Z,6.50
2018-01-23T17:11:38.951Z,6.50
2018-01-23T17:14:06.814Z,6.40
2018-01-23T17:16:33.331Z,6.30
2018-01-23T17:18:59.911Z,6.40
2018-01-23T17:21:26.443Z,6.40
2018-01-23T17:23:53.023Z,6.40
2018-01-23T17:26:19.548Z,6.50
2018-01-23T17:28:46.102Z,6.40
2018-01-23T17:31:12.794Z,6.40
2018-01-23T17:33:39.297Z,6.40
2018-01-23T17:36:06.582Z,6.50
2018-01-23T17:38:33.156Z,6.50
2018-01-23T17:40:59.699Z,6.50
2018-01-23T17:43:26.213Z,6.50
2018-01-23T17:45:53.681Z,6.50
2018-01-23T17:48:20.579Z,6.50
2018-01-23T17:50:47.095Z,6.60
2018-01-23T17:53:14.396Z,6.60
2018-01-23T17:55:40.917Z,6.50
2018-01-23T17:58:07.526Z,6.70
2018-01-23T18:00:34.984Z,6.60
2018-01-23T18:03:01.649Z,6.60
2018-01-23T18:05:28.160Z,6.50
2018-01-23T18:07:54.871Z,6.50
2018-01-23T18:10:21.542Z,6.50
2018-01-23T18:12:48.132Z,6.60
2018-01-23T18:15:14.652Z,6.40
2018-01-23T18:17:41.228Z,6.60
2018-01-23T18:20:08.599Z,6.60
2018-01-23T18:22:35.231Z,6.60
2018-01-23T18:25:01.985Z,6.60
2018-01-23T18:27:28.558Z,6.60
2018-01-23T18:29:55.120Z,6.60
2018-01-23T18:32:21.611Z,6.60
2018-01-23T18:34:48.112Z,6.50
2018-01-23T18:37:14.610Z,6.50
2018-01-23T18:39:41.260Z,6.50
2018-01-23T18:42:07.760Z,6.50
2018-01-23T18:44:35.508Z,6.50
2018-01-23T18:47:02.532Z,6.50
2018-01-23T18:49:29.116Z,6.60
2018-01-23T18:51:55.840Z,6.50
2018-01-23T18:54:22.376Z,6.50
2018-01-23T18:56:48.923Z,6.50
2018-01-23T18:59:15.601Z,6.40
2018-01-23T19:01:42.565Z,6.50
2018-01-23T19:04:09.103Z,6.40
2018-01-23T19:06:35.663Z,6.40
2018-01-23T19:09:02.475Z,6.30
2018-01-23T19:11:29.009Z,6.40
2018-01-23T19:13:56.325Z,6.30
2018-01-23T19:16:22.845Z,6.30
2018-01-23T19:18:50.087Z,6.30
2018-01-23T19:21:16.611Z,6.20
2018-01-23T19:23:43.166Z,6.10
2018-01-23T19:26:09.837Z,6.10
2018-01-23T19:29:20.214Z,5.90
2018-01-23T19:31:47.771Z,5.90
2018-01-23T19:34:15.260Z,5.80
2018-01-23T19:36:41.816Z,5.80
2018-01-23T19:39:08.972Z,5.70
2018-01-23T19:41:37.676Z,5.70
2018-01-23T19:44:04.450Z,5.60
2018-01-23T19:46:45.049Z,5.40
2018-01-23T19:49:21.914Z,5.40
2018-01-23T19:51:48.415Z,5.30
2018-01-23T19:54:15.881Z,5.00
2018-01-23T19:56:44.024Z,5.00
2018-01-23T19:59:11.494Z,4.90
2018-01-23T20:01:38.171Z,5.00
2018-01-23T20:04:04.866Z,4.90
2018-01-23T20:06:31.677Z,4.80
2018-01-23T20:08:58.331Z,4.70
2018-01-23T20:11:24.995Z,4.60
2018-01-23T20:13:52.242Z,4.50
2018-01-23T20:16:24.791Z,4.50
2018-01-23T20:18:51.336Z,4.40
2018-01-23T20:21:17.922Z,4.50
2018-01-23T20:23:44.605Z,4.50
2018-01-23T20:26:11.098Z,4.60
2018-01-23T20:28:37.637Z,4.60
2018-01-23T20:31:04.207Z,4.30
2018-01-23T20:33:30.705Z,4.20
2018-01-23T20:35:57.590Z,4.10
2018-01-23T20:38:24.120Z,3.80
2018-01-23T20:40:50.637Z,3.60
2018-01-23T20:43:17.102Z,3.60
2018-01-23T20:45:43.627Z,3.40
2018-01-23T20:48:10.156Z,3.40
2018-01-23T20:50:36.645Z,3.30
2018-01-23T20:53:04.038Z,3.60
2018-01-23T20:55:30.547Z,3.60
2018-01-23T20:57:57.067Z,3.60
2018-01-23T21:00:23.712Z,3.70
2018-01-23T21:02:50.195Z,3.80
2018-01-23T21:05:16.696Z,3.90
2018-01-23T21:07:43.166Z,4.00
2018-01-23T21:10:09.668Z,4.00
2018-01-23T21:12:36.152Z,4.00
2018-01-23T21:15:02.934Z,4.00
2018-01-23T21:17:29.983Z,3.70
2018-01-23T21:19:56.642Z,3.50
2018-01-23T21:22:23.151Z,3.50
2018-01-23T21:24:49.698Z,3.50
2018-01-23T21:27:16.220Z,3.50
2018-01-23T21:29:42.789Z,3.50
2018-01-23T21:32:09.302Z,3.60
2018-01-23T21:34:35.793Z,3.70
2018-01-23T21:37:03.053Z,3.60
2018-01-23T21:39:30.292Z,3.60
2018-01-23T21:41:56.838Z,3.60
2018-01-23T21:44:24.288Z,3.70
2018-01-23T21:46:51.690Z,3.70
2018-01-23T21:49:18.197Z,3.70
2018-01-23T21:51:45.567Z,3.80
2018-01-23T21:54:12.203Z,3.80
2018-01-23T21:56:38.884Z,3.80
2018-01-23T21:59:05.389Z,3.70
2018-01-23T22:01:32.036Z,3.70
2018-01-23T22:03:58.519Z,3.60
2018-01-23T22:06:25.812Z,3.60
2018-01-23T22:08:52.395Z,3.60
2018-01-23T22:11:19.334Z,3.50
2018-01-23T22:13:45.957Z,3.40
2018-01-23T22:16:12.390Z,3.40
2018-01-23T22:18:39.036Z,3.40
2018-01-23T22:21:05.819Z,3.30
2018-01-23T22:23:32.415Z,3.30
2018-01-23T22:25:59.008Z,2.90
2018-01-23T22:28:25.583Z,2.80
2018-01-23T22:30:52.298Z,2.80
2018-01-23T22:33:18.848Z,2.80
2018-01-23T22:35:45.466Z,2.90
2018-01-23T22:38:12.184Z,2.90
2018-01-23T22:40:40.423Z,3.00
2018-01-23T22:43:07.554Z,3.10
2018-01-23T22:45:34.143Z,3.30
2018-01-23T22:48:00.661Z,3.00
2018-01-23T22:50:27.877Z,3.40
2018-01-23T22:52:54.415Z,3.30
2018-01-23T22:55:20.990Z,3.40
2018-01-23T22:57:48.234Z,3.40
2018-01-23T23:00:15.475Z,3.40
2018-01-23T23:02:42.987Z,3.40
2018-01-23T23:05:09.800Z,3.40
2018-01-23T23:07:36.477Z,3.40
2018-01-23T23:10:03.158Z,3.30
2018-01-23T23:12:29.808Z,3.30
2018-01-23T23:14:56.357Z,3.30
2018-01-23T23:17:22.918Z,3.30
2018-01-23T23:19:49.387Z,3.40
2018-01-23T23:22:15.894Z,3.40
2018-01-23T23:24:42.484Z,3.50
2018-01-23T23:27:09.716Z,3.50
2018-01-23T23:29:36.293Z,3.50
2018-01-23T23:32:02.751Z,3.50
2018-01-23T23:34:29.223Z,3.50
2018-01-23T23:36:55.715Z,3.60
2018-01-23T23:39:22.373Z,3.60
2018-01-23T23:41:49.087Z,3.60
2018-01-23T23:44:15.827Z,3.70
2018-01-23T23:46:42.407Z,3.80
2018-01-23T23:49:09.606Z,3.80
2018-01-23T23:51:36.086Z,3.90
2018-01-23T23:54:02.675Z,3.80
2018-01-23T23:56:29.144Z,3.80
2018-01-23T23:58:55.640Z,3.80
